createdAt,value
2023-02-27T00:09:36.507Z,43.84
2023-02-27T00:19:38.909Z,44.98
2023-02-27T00:29:41.080Z,44.89
2023-02-27T00:39:43.310Z,45.31
2023-02-27T00:49:45.902Z,47.16
2023-02-27T00:59:48.652Z,46.44
2023-02-27T01:09:50.980Z,45.84
2023-02-27T01:19:53.288Z,45.77
2023-02-27T01:29:57.833Z,47.06
2023-02-27T01:39:59.984Z,46.34
2023-02-27T01:50:02.319Z,46.84
2023-02-27T02:00:06.715Z,46.86
2023-02-27T02:10:16.386Z,46.71
2023-02-27T02:20:56.049Z,46.74
2023-02-27T02:31:22.853Z,47.94
2023-02-27T02:41:50.833Z,47.60
2023-02-27T02:52:14.453Z,47.20
2023-02-27T03:02:21.386Z,46.95
2023-02-27T03:12:25.014Z,47.20
2023-02-27T03:22:32.711Z,48.93
2023-02-27T03:32:42.567Z,48.78
2023-02-27T03:42:55.117Z,49.08
2023-02-27T03:53:11.648Z,48.52
2023-02-27T04:03:14.175Z,47.86
2023-02-27T04:13:54.372Z,48.90
2023-02-27T04:24:16.143Z,49.13
2023-02-27T04:34:18.225Z,48.84
2023-02-27T04:44:21.739Z,48.91
2023-02-27T04:55:09.630Z,48.14
2023-02-27T05:05:16.457Z,49.95
2023-02-27T05:15:40.429Z,49.63
2023-02-27T05:25:52.464Z,48.97
2023-02-27T05:36:43.052Z,49.78
2023-02-27T05:46:50.066Z,49.02
2023-02-27T05:56:54.299Z,48.70
2023-02-27T06:06:57.199Z,49.21
2023-02-27T06:17:00.511Z,49.52
2023-02-27T06:27:02.898Z,51.57
2023-02-27T06:37:04.974Z,50.62
2023-02-27T06:47:07.278Z,50.89
2023-02-27T06:57:09.377Z,51.88
2023-02-27T07:07:35.189Z,51.66
2023-02-27T07:17:33.670Z,51.01
2023-02-27T07:27:35.864Z,52.02
2023-02-27T07:37:38.244Z,49.61
2023-02-27T07:47:40.623Z,50.17
2023-02-27T07:57:44.661Z,48.81
2023-02-27T08:07:46.841Z,48.07
2023-02-27T08:17:48.984Z,48.91
2023-02-27T08:27:52.124Z,48.59
2023-02-27T08:37:54.214Z,47.70
2023-02-27T08:47:56.586Z,46.68
2023-02-27T08:57:58.685Z,46.98
2023-02-27T09:08:04.617Z,45.93
2023-02-27T09:18:07.058Z,45.33
2023-02-27T09:28:09.212Z,44.68
2023-02-27T09:38:12.386Z,44.73
2023-02-27T09:48:36.683Z,44.85
2023-02-27T09:58:47.791Z,43.38
2023-02-27T10:09:11.653Z,43.03
2023-02-27T10:19:17.338Z,42.51
2023-02-27T10:29:36.654Z,41.63
2023-02-27T10:39:52.608Z,42.95
2023-02-27T10:49:56.706Z,40.46
2023-02-27T11:00:09.779Z,41.87
2023-02-27T11:10:15.265Z,39.55
2023-02-27T11:20:29.807Z,38.86
2023-02-27T11:30:32.156Z,39.52
2023-02-27T11:40:37.663Z,39.07
2023-02-27T11:50:48.694Z,39.41
2023-02-27T12:00:54.954Z,37.85
2023-02-27T12:11:13.701Z,38.56
2023-02-27T12:21:21.950Z,38.45
2023-02-27T12:31:36.304Z,38.20
2023-02-27T12:41:50.516Z,37.99
2023-02-27T12:52:35.215Z,38.51
2023-02-27T13:02:58.905Z,37.80
2023-02-27T13:13:08.800Z,37.59
2023-02-27T13:23:20.719Z,36.50
2023-02-27T13:33:34.592Z,34.95
2023-02-27T13:43:51.069Z,37.09
2023-02-27T13:54:19.730Z,37.36
2023-02-27T14:04:26.364Z,37.66
2023-02-27T14:14:41.355Z,34.94
2023-02-27T14:25:33.759Z,36.21
2023-02-27T14:35:36.076Z,35.50
2023-02-27T14:45:38.467Z,36.79
2023-02-27T14:55:41.363Z,37.25
2023-02-27T15:05:43.716Z,35.98
2023-02-27T15:15:46.144Z,35.05
2023-02-27T15:25:49.458Z,34.37
2023-02-27T15:35:52.970Z,34.49
2023-02-27T15:45:58.142Z,34.64
2023-02-27T15:56:09.673Z,34.19
2023-02-27T16:06:20.643Z,34.33
2023-02-27T16:16:23.021Z,34.99
2023-02-27T16:26:36.646Z,35.29
2023-02-27T16:36:41.102Z,34.81
2023-02-27T16:46:44.229Z,35.62
2023-02-27T16:56:47.379Z,35.14
2023-02-27T17:06:49.759Z,36.40
2023-02-27T17:16:52.072Z,36.10
2023-02-27T17:26:54.528Z,38.25
2023-02-27T17:36:56.737Z,37.79
2023-02-27T17:46:58.923Z,37.98
2023-02-27T17:57:01.187Z,38.02
2023-02-27T18:07:03.780Z,39.08
2023-02-27T18:17:11.722Z,38.34
2023-02-27T18:27:14.084Z,40.29
2023-02-27T18:37:16.355Z,39.15
2023-02-27T18:47:22.094Z,39.88
2023-02-27T18:57:24.956Z,39.23
2023-02-27T19:07:29.501Z,39.17
2023-02-27T19:17:33.691Z,39.59
2023-02-27T19:27:36.018Z,39.49
2023-02-27T19:37:39.716Z,38.54
2023-02-27T19:47:42.012Z,39.26
2023-02-27T19:57:44.819Z,39.81
2023-02-27T20:07:49.349Z,40.83
2023-02-27T20:17:51.483Z,40.75
2023-02-27T20:27:54.347Z,40.80
2023-02-27T20:37:56.731Z,41.97
2023-02-27T20:47:58.824Z,41.36
2023-02-27T20:58:01.188Z,41.63
2023-02-27T21:08:03.566Z,42.61
2023-02-27T21:18:05.711Z,42.82
2023-02-27T21:28:08.358Z,44.54
2023-02-27T21:38:10.470Z,42.76
2023-02-27T21:48:12.866Z,43.79
2023-02-27T21:58:15.141Z,44.92
2023-02-27T22:08:17.263Z,43.74
2023-02-27T22:18:20.262Z,44.41
2023-02-27T22:28:23.185Z,44.53
2023-02-27T22:38:25.349Z,45.84
2023-02-27T22:48:27.904Z,44.73
2023-02-27T22:58:31.254Z,44.02
2023-02-27T23:08:33.508Z,43.36
2023-02-27T23:18:35.805Z,43.99
2023-02-27T23:28:38.341Z,42.98
2023-02-27T23:38:42.042Z,43.59
2023-02-27T23:48:44.267Z,45.02
2023-02-27T23:58:46.628Z,45.31
